sensor_id;sensor_type;location;lat;lon;timestamp;P1;durP1;ratioP1;P2;durP2;ratioP2
59880;SDS011;45751;51.380;10.326;2022-11-03T00:01:42;7.57;;;1.85;;
59880;SDS011;45751;51.380;10.326;2022-11-03T00:04:11;7.15;;;1.80;;
59880;SDS011;45751;51.380;10.326;2022-11-03T00:06:40;6.68;;;2.03;;
59880;SDS011;45751;51.380;10.326;2022-11-03T00:09:09;10.02;;;1.65;;
59880;SDS011;45751;51.380;10.326;2022-11-03T00:11:38;8.25;;;1.88;;
59880;SDS011;45751;51.380;10.326;2022-11-03T00:14:06;7.80;;;2.40;;
59880;SDS011;45751;51.380;10.326;2022-11-03T00:16:37;7.57;;;2.13;;
59880;SDS011;45751;51.380;10.326;2022-11-03T00:19:05;12.98;;;2.15;;
59880;SDS011;45751;51.380;10.326;2022-11-03T00:21:34;8.70;;;1.90;;
59880;SDS011;45751;51.380;10.326;2022-11-03T00:24:02;6.68;;;1.73;;
59880;SDS011;45751;51.380;10.326;2022-11-03T00:26:33;8.18;;;1.83;;
59880;SDS011;45751;51.380;10.326;2022-11-03T00:29:05;6.57;;;1.73;;
59880;SDS011;45751;51.380;10.326;2022-11-03T00:31:42;8.15;;;2.25;;
59880;SDS011;45751;51.380;10.326;2022-11-03T00:34:10;6.63;;;1.70;;
59880;SDS011;45751;51.380;10.326;2022-11-03T00:36:40;5.43;;;1.52;;
59880;SDS011;45751;51.380;10.326;2022-11-03T00:39:08;6.85;;;1.77;;
59880;SDS011;45751;51.380;10.326;2022-11-03T00:41:36;7.35;;;1.33;;
59880;SDS011;45751;51.380;10.326;2022-11-03T00:44:03;5.20;;;1.80;;
59880;SDS011;45751;51.380;10.326;2022-11-03T00:46:30;5.45;;;1.60;;
59880;SDS011;45751;51.380;10.326;2022-11-03T00:49:01;7.20;;;1.67;;
59880;SDS011;45751;51.380;10.326;2022-11-03T00:51:29;7.20;;;1.58;;
59880;SDS011;45751;51.380;10.326;2022-11-03T00:53:57;7.38;;;1.98;;
59880;SDS011;45751;51.380;10.326;2022-11-03T00:56:30;7.47;;;1.83;;
59880;SDS011;45751;51.380;10.326;2022-11-03T00:58:58;5.25;;;1.50;;
59880;SDS011;45751;51.380;10.326;2022-11-03T01:01:27;7.90;;;1.45;;
59880;SDS011;45751;51.380;10.326;2022-11-03T01:03:57;8.27;;;1.85;;
59880;SDS011;45751;51.380;10.326;2022-11-03T01:06:44;5.40;;;1.40;;
59880;SDS011;45751;51.380;10.326;2022-11-03T01:09:15;5.97;;;2.03;;
59880;SDS011;45751;51.380;10.326;2022-11-03T01:14:30;6.93;;;1.55;;
59880;SDS011;45751;51.380;10.326;2022-11-03T01:16:58;7.65;;;1.73;;
59880;SDS011;45751;51.380;10.326;2022-11-03T01:19:25;6.50;;;1.88;;
59880;SDS011;45751;51.380;10.326;2022-11-03T01:21:53;7.25;;;1.73;;
59880;SDS011;45751;51.380;10.326;2022-11-03T01:24:20;5.97;;;1.48;;
59880;SDS011;45751;51.380;10.326;2022-11-03T01:26:47;5.80;;;1.85;;
59880;SDS011;45751;51.380;10.326;2022-11-03T01:29:14;7.88;;;1.95;;
59880;SDS011;45751;51.380;10.326;2022-11-03T01:31:41;6.03;;;1.63;;
59880;SDS011;45751;51.380;10.326;2022-11-03T01:34:11;6.53;;;1.48;;
59880;SDS011;45751;51.380;10.326;2022-11-03T01:36:43;7.30;;;1.65;;
59880;SDS011;45751;51.380;10.326;2022-11-03T01:39:14;10.73;;;1.92;;
59880;SDS011;45751;51.380;10.326;2022-11-03T01:41:43;9.02;;;2.13;;
59880;SDS011;45751;51.380;10.326;2022-11-03T01:52:26;7.60;;;1.70;;
59880;SDS011;45751;51.380;10.326;2022-11-03T01:57:31;3.90;;;1.20;;
59880;SDS011;45751;51.380;10.326;2022-11-03T02:00:02;9.02;;;1.60;;
59880;SDS011;45751;51.380;10.326;2022-11-03T02:02:37;7.20;;;1.75;;
59880;SDS011;45751;51.380;10.326;2022-11-03T02:05:05;6.18;;;1.35;;
59880;SDS011;45751;51.380;10.326;2022-11-03T02:07:35;8.57;;;1.33;;
59880;SDS011;45751;51.380;10.326;2022-11-03T02:10:07;5.50;;;1.45;;
59880;SDS011;45751;51.380;10.326;2022-11-03T02:12:34;7.93;;;2.47;;
59880;SDS011;45751;51.380;10.326;2022-11-03T02:15:06;8.73;;;1.73;;
59880;SDS011;45751;51.380;10.326;2022-11-03T02:17:36;7.28;;;1.60;;
59880;SDS011;45751;51.380;10.326;2022-11-03T02:20:12;7.13;;;1.65;;
59880;SDS011;45751;51.380;10.326;2022-11-03T02:28:14;6.40;;;1.95;;
59880;SDS011;45751;51.380;10.326;2022-11-03T02:36:02;5.15;;;1.40;;
59880;SDS011;45751;51.380;10.326;2022-11-03T02:38:38;5.78;;;1.60;;
59880;SDS011;45751;51.380;10.326;2022-11-03T02:41:10;5.55;;;1.77;;
59880;SDS011;45751;51.380;10.326;2022-11-03T02:43:38;6.25;;;1.77;;
59880;SDS011;45751;51.380;10.326;2022-11-03T02:46:06;8.23;;;1.58;;
59880;SDS011;45751;51.380;10.326;2022-11-03T02:48:36;7.68;;;1.83;;
59880;SDS011;45751;51.380;10.326;2022-11-03T02:51:03;7.05;;;1.50;;
59880;SDS011;45751;51.380;10.326;2022-11-03T02:53:30;6.22;;;1.67;;
59880;SDS011;45751;51.380;10.326;2022-11-03T02:56:15;10.50;;;1.90;;
59880;SDS011;45751;51.380;10.326;2022-11-03T02:58:48;6.88;;;1.52;;
59880;SDS011;45751;51.380;10.326;2022-11-03T03:04:02;7.80;;;1.65;;
59880;SDS011;45751;51.380;10.326;2022-11-03T03:06:32;5.35;;;1.35;;
59880;SDS011;45751;51.380;10.326;2022-11-03T03:09:10;5.57;;;1.83;;
59880;SDS011;45751;51.380;10.326;2022-11-03T03:11:43;7.18;;;1.90;;
59880;SDS011;45751;51.380;10.326;2022-11-03T03:14:17;5.38;;;1.30;;
59880;SDS011;45751;51.380;10.326;2022-11-03T03:19:21;7.80;;;1.58;;
59880;SDS011;45751;51.380;10.326;2022-11-03T03:21:56;8.20;;;1.52;;
59880;SDS011;45751;51.380;10.326;2022-11-03T03:24:26;4.57;;;1.33;;
59880;SDS011;45751;51.380;10.326;2022-11-03T03:27:03;6.90;;;1.70;;
59880;SDS011;45751;51.380;10.326;2022-11-03T03:29:36;6.03;;;1.70;;
59880;SDS011;45751;51.380;10.326;2022-11-03T03:32:09;5.68;;;1.10;;
59880;SDS011;45751;51.380;10.326;2022-11-03T03:34:38;6.10;;;1.55;;
59880;SDS011;45751;51.380;10.326;2022-11-03T03:37:08;7.72;;;1.90;;
59880;SDS011;45751;51.380;10.326;2022-11-03T03:39:39;13.45;;;1.58;;
59880;SDS011;45751;51.380;10.326;2022-11-03T03:42:09;5.15;;;1.25;;
59880;SDS011;45751;51.380;10.326;2022-11-03T03:44:39;7.75;;;1.48;;
59880;SDS011;45751;51.380;10.326;2022-11-03T03:47:16;8.40;;;1.70;;
59880;SDS011;45751;51.380;10.326;2022-11-03T03:49:47;6.07;;;1.67;;
59880;SDS011;45751;51.380;10.326;2022-11-03T03:52:14;6.80;;;1.98;;
59880;SDS011;45751;51.380;10.326;2022-11-03T03:54:41;11.07;;;2.00;;
59880;SDS011;45751;51.380;10.326;2022-11-03T03:57:09;5.85;;;1.42;;
59880;SDS011;45751;51.380;10.326;2022-11-03T03:59:43;7.72;;;1.88;;
59880;SDS011;45751;51.380;10.326;2022-11-03T04:02:10;8.52;;;1.70;;
59880;SDS011;45751;51.380;10.326;2022-11-03T04:04:37;6.57;;;1.70;;
59880;SDS011;45751;51.380;10.326;2022-11-03T04:07:05;4.50;;;1.35;;
59880;SDS011;45751;51.380;10.326;2022-11-03T04:09:51;9.02;;;1.98;;
59880;SDS011;45751;51.380;10.326;2022-11-03T04:12:17;8.32;;;1.52;;
59880;SDS011;45751;51.380;10.326;2022-11-03T04:15:03;6.35;;;2.60;;
59880;SDS011;45751;51.380;10.326;2022-11-03T04:17:48;8.50;;;1.85;;
59880;SDS011;45751;51.380;10.326;2022-11-03T04:20:34;3.90;;;1.13;;
59880;SDS011;45751;51.380;10.326;2022-11-03T04:23:20;5.95;;;1.88;;
59880;SDS011;45751;51.380;10.326;2022-11-03T04:25:47;4.78;;;1.55;;
59880;SDS011;45751;51.380;10.326;2022-11-03T04:28:17;5.30;;;1.42;;
59880;SDS011;45751;51.380;10.326;2022-11-03T04:30:44;5.95;;;1.92;;
59880;SDS011;45751;51.380;10.326;2022-11-03T04:33:20;10.52;;;2.42;;
59880;SDS011;45751;51.380;10.326;2022-11-03T04:35:47;9.68;;;1.95;;
59880;SDS011;45751;51.380;10.326;2022-11-03T04:40:45;6.78;;;2.00;;
59880;SDS011;45751;51.380;10.326;2022-11-03T04:43:19;7.30;;;2.15;;
59880;SDS011;45751;51.380;10.326;2022-11-03T04:45:47;9.05;;;2.00;;
59880;SDS011;45751;51.380;10.326;2022-11-03T04:48:17;7.75;;;1.98;;
59880;SDS011;45751;51.380;10.326;2022-11-03T04:50:46;6.65;;;2.00;;
59880;SDS011;45751;51.380;10.326;2022-11-03T04:53:16;4.97;;;1.33;;
59880;SDS011;45751;51.380;10.326;2022-11-03T04:55:45;10.82;;;2.38;;
59880;SDS011;45751;51.380;10.326;2022-11-03T05:00:42;10.60;;;2.53;;
59880;SDS011;45751;51.380;10.326;2022-11-03T05:03:12;5.72;;;1.75;;
59880;SDS011;45751;51.380;10.326;2022-11-03T05:05:43;7.75;;;2.20;;
59880;SDS011;45751;51.380;10.326;2022-11-03T05:08:10;11.45;;;2.40;;
59880;SDS011;45751;51.380;10.326;2022-11-03T05:10:38;9.93;;;3.30;;
59880;SDS011;45751;51.380;10.326;2022-11-03T05:13:07;11.10;;;3.88;;
59880;SDS011;45751;51.380;10.326;2022-11-03T05:15:41;6.68;;;2.38;;
59880;SDS011;45751;51.380;10.326;2022-11-03T05:18:26;6.47;;;1.77;;
59880;SDS011;45751;51.380;10.326;2022-11-03T05:21:03;6.72;;;1.90;;
59880;SDS011;45751;51.380;10.326;2022-11-03T05:24:00;12.55;;;2.70;;
59880;SDS011;45751;51.380;10.326;2022-11-03T05:26:29;6.93;;;1.83;;
59880;SDS011;45751;51.380;10.326;2022-11-03T05:33:58;5.07;;;1.92;;
59880;SDS011;45751;51.380;10.326;2022-11-03T05:36:30;8.60;;;2.28;;
59880;SDS011;45751;51.380;10.326;2022-11-03T05:41:27;4.93;;;2.05;;
59880;SDS011;45751;51.380;10.326;2022-11-03T05:43:56;7.68;;;2.55;;
59880;SDS011;45751;51.380;10.326;2022-11-03T05:46:27;10.30;;;2.17;;
59880;SDS011;45751;51.380;10.326;2022-11-03T05:48:56;11.30;;;3.27;;
59880;SDS011;45751;51.380;10.326;2022-11-03T05:51:33;9.80;;;2.50;;
59880;SDS011;45751;51.380;10.326;2022-11-03T05:54:14;7.55;;;2.47;;
59880;SDS011;45751;51.380;10.326;2022-11-03T05:56:47;7.25;;;1.90;;
59880;SDS011;45751;51.380;10.326;2022-11-03T05:59:16;5.57;;;1.27;;
59880;SDS011;45751;51.380;10.326;2022-11-03T06:01:48;5.57;;;1.83;;
59880;SDS011;45751;51.380;10.326;2022-11-03T06:07:00;7.38;;;1.80;;
59880;SDS011;45751;51.380;10.326;2022-11-03T06:09:30;11.30;;;2.15;;
59880;SDS011;45751;51.380;10.326;2022-11-03T06:11:59;8.05;;;2.00;;
59880;SDS011;45751;51.380;10.326;2022-11-03T06:14:30;8.35;;;2.20;;
59880;SDS011;45751;51.380;10.326;2022-11-03T06:17:02;9.20;;;1.73;;
59880;SDS011;45751;51.380;10.326;2022-11-03T06:22:12;4.55;;;1.45;;
59880;SDS011;45751;51.380;10.326;2022-11-03T06:24:45;5.75;;;1.65;;
59880;SDS011;45751;51.380;10.326;2022-11-03T06:27:17;8.63;;;1.50;;
59880;SDS011;45751;51.380;10.326;2022-11-03T06:29:58;9.65;;;1.90;;
59880;SDS011;45751;51.380;10.326;2022-11-03T06:32:28;10.52;;;1.90;;
59880;SDS011;45751;51.380;10.326;2022-11-03T06:34:56;9.70;;;2.47;;
59880;SDS011;45751;51.380;10.326;2022-11-03T06:37:25;8.57;;;2.20;;
59880;SDS011;45751;51.380;10.326;2022-11-03T06:39:59;8.95;;;2.00;;
59880;SDS011;45751;51.380;10.326;2022-11-03T06:42:41;4.85;;;1.40;;
59880;SDS011;45751;51.380;10.326;2022-11-03T06:45:13;10.75;;;3.55;;
59880;SDS011;45751;51.380;10.326;2022-11-03T06:47:47;7.28;;;2.97;;
59880;SDS011;45751;51.380;10.326;2022-11-03T06:50:28;11.65;;;2.78;;
59880;SDS011;45751;51.380;10.326;2022-11-03T06:53:00;6.13;;;2.20;;
59880;SDS011;45751;51.380;10.326;2022-11-03T06:55:35;11.82;;;2.72;;
59880;SDS011;45751;51.380;10.326;2022-11-03T06:58:10;6.88;;;2.20;;
59880;SDS011;45751;51.380;10.326;2022-11-03T07:00:42;7.60;;;1.98;;
59880;SDS011;45751;51.380;10.326;2022-11-03T07:05:56;10.55;;;2.50;;
59880;SDS011;45751;51.380;10.326;2022-11-03T07:08:35;7.28;;;2.00;;
59880;SDS011;45751;51.380;10.326;2022-11-03T07:11:18;9.48;;;2.28;;
59880;SDS011;45751;51.380;10.326;2022-11-03T07:13:47;9.48;;;2.45;;
59880;SDS011;45751;51.380;10.326;2022-11-03T07:16:22;6.35;;;2.03;;
59880;SDS011;45751;51.380;10.326;2022-11-03T07:19:13;12.18;;;2.15;;
59880;SDS011;45751;51.380;10.326;2022-11-03T07:21:52;10.25;;;2.47;;
59880;SDS011;45751;51.380;10.326;2022-11-03T07:24:26;8.15;;;2.30;;
59880;SDS011;45751;51.380;10.326;2022-11-03T07:29:59;8.95;;;2.92;;
59880;SDS011;45751;51.380;10.326;2022-11-03T07:32:36;7.22;;;2.47;;
59880;SDS011;45751;51.380;10.326;2022-11-03T07:37:46;9.45;;;2.75;;
59880;SDS011;45751;51.380;10.326;2022-11-03T07:40:16;6.28;;;1.90;;
59880;SDS011;45751;51.380;10.326;2022-11-03T07:42:46;11.52;;;2.13;;
59880;SDS011;45751;51.380;10.326;2022-11-03T07:45:34;5.95;;;2.10;;
59880;SDS011;45751;51.380;10.326;2022-11-03T07:50:51;7.13;;;2.17;;
59880;SDS011;45751;51.380;10.326;2022-11-03T07:53:21;10.45;;;3.38;;
59880;SDS011;45751;51.380;10.326;2022-11-03T07:56:06;17.50;;;8.20;;
59880;SDS011;45751;51.380;10.326;2022-11-03T07:58:53;13.00;;;6.25;;
59880;SDS011;45751;51.380;10.326;2022-11-03T08:01:28;20.20;;;8.45;;
59880;SDS011;45751;51.380;10.326;2022-11-03T08:03:58;18.42;;;7.53;;
59880;SDS011;45751;51.380;10.326;2022-11-03T08:06:29;12.45;;;5.70;;
59880;SDS011;45751;51.380;10.326;2022-11-03T08:08:57;6.93;;;2.60;;
59880;SDS011;45751;51.380;10.326;2022-11-03T08:11:23;9.90;;;2.85;;
59880;SDS011;45751;51.380;10.326;2022-11-03T08:16:21;10.05;;;3.08;;
59880;SDS011;45751;51.380;10.326;2022-11-03T08:18:48;7.75;;;2.88;;
59880;SDS011;45751;51.380;10.326;2022-11-03T08:21:15;11.20;;;2.80;;
59880;SDS011;45751;51.380;10.326;2022-11-03T08:23:42;11.57;;;3.35;;
59880;SDS011;45751;51.380;10.326;2022-11-03T08:26:13;10.48;;;3.50;;
59880;SDS011;45751;51.380;10.326;2022-11-03T08:28:40;9.63;;;2.78;;
59880;SDS011;45751;51.380;10.326;2022-11-03T08:31:07;8.38;;;2.95;;
59880;SDS011;45751;51.380;10.326;2022-11-03T08:33:38;7.97;;;2.72;;
59880;SDS011;45751;51.380;10.326;2022-11-03T08:36:05;11.07;;;3.40;;
59880;SDS011;45751;51.380;10.326;2022-11-03T08:38:33;7.82;;;3.20;;
59880;SDS011;45751;51.380;10.326;2022-11-03T08:41:00;9.70;;;3.65;;
59880;SDS011;45751;51.380;10.326;2022-11-03T08:44:16;19.33;;;7.28;;
59880;SDS011;45751;51.380;10.326;2022-11-03T08:46:43;14.52;;;6.25;;
59880;SDS011;45751;51.380;10.326;2022-11-03T08:49:09;12.95;;;3.97;;
59880;SDS011;45751;51.380;10.326;2022-11-03T08:51:36;7.78;;;2.80;;
59880;SDS011;45751;51.380;10.326;2022-11-03T08:54:09;12.27;;;3.65;;
59880;SDS011;45751;51.380;10.326;2022-11-03T08:56:36;7.68;;;3.10;;
59880;SDS011;45751;51.380;10.326;2022-11-03T08:59:03;8.30;;;2.97;;
59880;SDS011;45751;51.380;10.326;2022-11-03T09:01:30;13.18;;;3.47;;
59880;SDS011;45751;51.380;10.326;2022-11-03T09:03:56;8.65;;;2.67;;
59880;SDS011;45751;51.380;10.326;2022-11-03T09:06:23;10.77;;;2.85;;
59880;SDS011;45751;51.380;10.326;2022-11-03T09:08:50;13.52;;;6.20;;
59880;SDS011;45751;51.380;10.326;2022-11-03T09:11:37;10.68;;;5.65;;
59880;SDS011;45751;51.380;10.326;2022-11-03T09:14:04;7.72;;;2.72;;
59880;SDS011;45751;51.380;10.326;2022-11-03T09:16:31;8.18;;;2.78;;
59880;SDS011;45751;51.380;10.326;2022-11-03T09:18:57;7.60;;;2.83;;
59880;SDS011;45751;51.380;10.326;2022-11-03T09:21:24;8.07;;;2.90;;
59880;SDS011;45751;51.380;10.326;2022-11-03T09:23:51;8.63;;;2.70;;
59880;SDS011;45751;51.380;10.326;2022-11-03T09:26:18;10.55;;;2.78;;
59880;SDS011;45751;51.380;10.326;2022-11-03T09:28:45;10.60;;;4.10;;
59880;SDS011;45751;51.380;10.326;2022-11-03T09:31:12;14.15;;;4.68;;
59880;SDS011;45751;51.380;10.326;2022-11-03T09:33:39;9.05;;;3.30;;
59880;SDS011;45751;51.380;10.326;2022-11-03T09:36:05;7.65;;;2.55;;
59880;SDS011;45751;51.380;10.326;2022-11-03T09:38:32;11.88;;;3.50;;
59880;SDS011;45751;51.380;10.326;2022-11-03T09:40:59;8.93;;;2.95;;
59880;SDS011;45751;51.380;10.326;2022-11-03T09:43:34;6.70;;;2.30;;
59880;SDS011;45751;51.380;10.326;2022-11-03T09:46:01;10.75;;;3.03;;
59880;SDS011;45751;51.380;10.326;2022-11-03T09:48:28;10.52;;;2.97;;
59880;SDS011;45751;51.380;10.326;2022-11-03T09:50:55;17.77;;;3.28;;
59880;SDS011;45751;51.380;10.326;2022-11-03T09:53:22;7.55;;;2.63;;
59880;SDS011;45751;51.380;10.326;2022-11-03T09:55:49;8.75;;;2.75;;
59880;SDS011;45751;51.380;10.326;2022-11-03T09:58:16;8.77;;;2.80;;
59880;SDS011;45751;51.380;10.326;2022-11-03T10:00:43;8.45;;;2.72;;
59880;SDS011;45751;51.380;10.326;2022-11-03T10:03:11;8.15;;;3.47;;
59880;SDS011;45751;51.380;10.326;2022-11-03T10:05:39;7.75;;;2.55;;
59880;SDS011;45751;51.380;10.326;2022-11-03T10:08:11;8.38;;;3.10;;
59880;SDS011;45751;51.380;10.326;2022-11-03T10:10:48;8.82;;;3.05;;
59880;SDS011;45751;51.380;10.326;2022-11-03T10:13:20;9.73;;;3.70;;
59880;SDS011;45751;51.380;10.326;2022-11-03T10:16:05;8.13;;;2.40;;
59880;SDS011;45751;51.380;10.326;2022-11-03T10:18:34;8.70;;;2.53;;
59880;SDS011;45751;51.380;10.326;2022-11-03T10:21:05;6.72;;;2.72;;
59880;SDS011;45751;51.380;10.326;2022-11-03T10:23:38;12.75;;;3.00;;
59880;SDS011;45751;51.380;10.326;2022-11-03T10:26:09;9.18;;;2.78;;
59880;SDS011;45751;51.380;10.326;2022-11-03T10:29:00;6.78;;;2.47;;
59880;SDS011;45751;51.380;10.326;2022-11-03T10:31:36;8.27;;;3.03;;
59880;SDS011;45751;51.380;10.326;2022-11-03T10:34:05;8.38;;;2.40;;
59880;SDS011;45751;51.380;10.326;2022-11-03T10:36:48;10.70;;;3.47;;
59880;SDS011;45751;51.380;10.326;2022-11-03T10:39:23;8.68;;;2.90;;
59880;SDS011;45751;51.380;10.326;2022-11-03T10:41:56;11.13;;;3.20;;
59880;SDS011;45751;51.380;10.326;2022-11-03T10:44:27;8.25;;;2.63;;
59880;SDS011;45751;51.380;10.326;2022-11-03T10:49:27;8.90;;;3.08;;
59880;SDS011;45751;51.380;10.326;2022-11-03T10:52:08;7.07;;;3.00;;
59880;SDS011;45751;51.380;10.326;2022-11-03T10:54:51;7.22;;;2.72;;
59880;SDS011;45751;51.380;10.326;2022-11-03T10:57:20;8.30;;;2.83;;
59880;SDS011;45751;51.380;10.326;2022-11-03T10:59:48;8.85;;;3.15;;
59880;SDS011;45751;51.380;10.326;2022-11-03T11:02:19;8.70;;;2.72;;
59880;SDS011;45751;51.380;10.326;2022-11-03T11:04:48;9.30;;;2.90;;
59880;SDS011;45751;51.380;10.326;2022-11-03T11:07:33;10.90;;;2.90;;
59880;SDS011;45751;51.380;10.326;2022-11-03T11:10:04;9.65;;;3.42;;
59880;SDS011;45751;51.380;10.326;2022-11-03T11:15:44;9.23;;;2.78;;
59880;SDS011;45751;51.380;10.326;2022-11-03T11:20:58;7.95;;;2.67;;
59880;SDS011;45751;51.380;10.326;2022-11-03T11:28:35;7.38;;;3.08;;
59880;SDS011;45751;51.380;10.326;2022-11-03T11:50:14;8.35;;;2.30;;
59880;SDS011;45751;51.380;10.326;2022-11-03T11:55:17;7.50;;;2.25;;
59880;SDS011;45751;51.380;10.326;2022-11-03T11:57:57;10.20;;;2.25;;
59880;SDS011;45751;51.380;10.326;2022-11-03T12:00:26;6.88;;;2.30;;
59880;SDS011;45751;51.380;10.326;2022-11-03T12:02:56;10.23;;;2.67;;
59880;SDS011;45751;51.380;10.326;2022-11-03T12:05:25;8.35;;;2.50;;
59880;SDS011;45751;51.380;10.326;2022-11-03T12:07:55;6.85;;;2.30;;
59880;SDS011;45751;51.380;10.326;2022-11-03T12:10:24;10.02;;;2.88;;
59880;SDS011;45751;51.380;10.326;2022-11-03T12:12:53;9.15;;;2.35;;
59880;SDS011;45751;51.380;10.326;2022-11-03T12:18:40;10.32;;;2.88;;
59880;SDS011;45751;51.380;10.326;2022-11-03T12:29:51;6.93;;;2.20;;
59880;SDS011;45751;51.380;10.326;2022-11-03T12:32:22;5.32;;;1.73;;
59880;SDS011;45751;51.380;10.326;2022-11-03T12:35:03;7.63;;;2.00;;
59880;SDS011;45751;51.380;10.326;2022-11-03T12:37:33;6.32;;;1.60;;
59880;SDS011;45751;51.380;10.326;2022-11-03T12:40:00;9.10;;;1.92;;
59880;SDS011;45751;51.380;10.326;2022-11-03T12:42:27;9.18;;;1.90;;
59880;SDS011;45751;51.380;10.326;2022-11-03T12:44:53;8.20;;;2.13;;
59880;SDS011;45751;51.380;10.326;2022-11-03T12:47:21;7.47;;;2.20;;
59880;SDS011;45751;51.380;10.326;2022-11-03T12:49:48;9.20;;;1.90;;
59880;SDS011;45751;51.380;10.326;2022-11-03T12:52:14;7.82;;;1.67;;
59880;SDS011;45751;51.380;10.326;2022-11-03T12:54:41;6.68;;;1.60;;
59880;SDS011;45751;51.380;10.326;2022-11-03T12:57:08;7.00;;;1.73;;
59880;SDS011;45751;51.380;10.326;2022-11-03T12:59:35;11.02;;;1.90;;
59880;SDS011;45751;51.380;10.326;2022-11-03T13:02:02;8.70;;;2.20;;
59880;SDS011;45751;51.380;10.326;2022-11-03T13:04:29;10.68;;;1.95;;
59880;SDS011;45751;51.380;10.326;2022-11-03T13:06:56;8.68;;;2.10;;
59880;SDS011;45751;51.380;10.326;2022-11-03T13:09:23;7.90;;;2.03;;
59880;SDS011;45751;51.380;10.326;2022-11-03T13:11:49;7.07;;;1.98;;
59880;SDS011;45751;51.380;10.326;2022-11-03T13:14:39;11.15;;;2.13;;
59880;SDS011;45751;51.380;10.326;2022-11-03T13:17:13;10.07;;;2.22;;
59880;SDS011;45751;51.380;10.326;2022-11-03T13:19:40;6.88;;;2.20;;
59880;SDS011;45751;51.380;10.326;2022-11-03T13:22:07;8.23;;;1.80;;
59880;SDS011;45751;51.380;10.326;2022-11-03T13:24:33;8.77;;;1.73;;
59880;SDS011;45751;51.380;10.326;2022-11-03T13:27:00;8.25;;;2.13;;
59880;SDS011;45751;51.380;10.326;2022-11-03T13:29:27;5.88;;;1.77;;
59880;SDS011;45751;51.380;10.326;2022-11-03T13:32:00;5.88;;;1.80;;
59880;SDS011;45751;51.380;10.326;2022-11-03T13:34:28;7.63;;;2.60;;
59880;SDS011;45751;51.380;10.326;2022-11-03T13:36:55;7.28;;;1.95;;
59880;SDS011;45751;51.380;10.326;2022-11-03T13:39:22;7.88;;;2.40;;
59880;SDS011;45751;51.380;10.326;2022-11-03T13:41:49;6.65;;;1.95;;
59880;SDS011;45751;51.380;10.326;2022-11-03T13:44:16;11.40;;;2.13;;
59880;SDS011;45751;51.380;10.326;2022-11-03T13:46:43;8.25;;;1.90;;
59880;SDS011;45751;51.380;10.326;2022-11-03T13:49:09;9.57;;;1.60;;
59880;SDS011;45751;51.380;10.326;2022-11-03T13:51:56;5.50;;;1.38;;
59880;SDS011;45751;51.380;10.326;2022-11-03T13:54:23;4.72;;;1.40;;
59880;SDS011;45751;51.380;10.326;2022-11-03T13:57:10;7.68;;;1.52;;
59880;SDS011;45751;51.380;10.326;2022-11-03T13:59:57;5.85;;;1.70;;
59880;SDS011;45751;51.380;10.326;2022-11-03T14:02:37;5.82;;;1.65;;
59880;SDS011;45751;51.380;10.326;2022-11-03T14:05:24;15.63;;;2.08;;
59880;SDS011;45751;51.380;10.326;2022-11-03T14:07:51;7.43;;;1.88;;
59880;SDS011;45751;51.380;10.326;2022-11-03T14:10:18;6.05;;;1.63;;
59880;SDS011;45751;51.380;10.326;2022-11-03T14:12:44;6.65;;;2.38;;
59880;SDS011;45751;51.380;10.326;2022-11-03T14:15:11;6.35;;;1.58;;
59880;SDS011;45751;51.380;10.326;2022-11-03T14:17:38;7.85;;;2.15;;
59880;SDS011;45751;51.380;10.326;2022-11-03T14:20:07;7.32;;;2.15;;
59880;SDS011;45751;51.380;10.326;2022-11-03T14:22:36;7.88;;;1.92;;
59880;SDS011;45751;51.380;10.326;2022-11-03T14:25:03;6.43;;;2.17;;
59880;SDS011;45751;51.380;10.326;2022-11-03T14:27:30;5.97;;;1.55;;
59880;SDS011;45751;51.380;10.326;2022-11-03T14:29:57;6.43;;;1.60;;
59880;SDS011;45751;51.380;10.326;2022-11-03T14:32:24;7.50;;;2.25;;
59880;SDS011;45751;51.380;10.326;2022-11-03T14:34:51;6.90;;;2.08;;
59880;SDS011;45751;51.380;10.326;2022-11-03T14:37:17;7.30;;;1.63;;
59880;SDS011;45751;51.380;10.326;2022-11-03T14:39:44;5.60;;;1.25;;
59880;SDS011;45751;51.380;10.326;2022-11-03T14:42:12;7.10;;;1.80;;
59880;SDS011;45751;51.380;10.326;2022-11-03T14:44:43;4.78;;;1.33;;
59880;SDS011;45751;51.380;10.326;2022-11-03T14:47:12;7.60;;;1.90;;
59880;SDS011;45751;51.380;10.326;2022-11-03T14:49:43;6.35;;;1.70;;
59880;SDS011;45751;51.380;10.326;2022-11-03T14:52:11;8.60;;;3.22;;
59880;SDS011;45751;51.380;10.326;2022-11-03T14:54:38;29.50;;;14.35;;
59880;SDS011;45751;51.380;10.326;2022-11-03T14:57:05;19.25;;;9.43;;
59880;SDS011;45751;51.380;10.326;2022-11-03T14:59:50;9.70;;;3.58;;
59880;SDS011;45751;51.380;10.326;2022-11-03T15:02:39;8.93;;;2.20;;
59880;SDS011;45751;51.380;10.326;2022-11-03T15:05:26;7.97;;;2.28;;
59880;SDS011;45751;51.380;10.326;2022-11-03T15:08:31;7.07;;;2.10;;
59880;SDS011;45751;51.380;10.326;2022-11-03T15:11:19;5.88;;;1.80;;
59880;SDS011;45751;51.380;10.326;2022-11-03T15:14:06;7.25;;;1.85;;
59880;SDS011;45751;51.380;10.326;2022-11-03T15:16:54;8.77;;;1.90;;
59880;SDS011;45751;51.380;10.326;2022-11-03T15:19:41;7.70;;;2.13;;
59880;SDS011;45751;51.380;10.326;2022-11-03T15:22:28;5.70;;;1.73;;
59880;SDS011;45751;51.380;10.326;2022-11-03T15:25:33;6.90;;;1.75;;
59880;SDS011;45751;51.380;10.326;2022-11-03T15:28:01;7.90;;;1.95;;
59880;SDS011;45751;51.380;10.326;2022-11-03T15:30:28;6.38;;;1.90;;
59880;SDS011;45751;51.380;10.326;2022-11-03T15:32:55;7.28;;;1.98;;
59880;SDS011;45751;51.380;10.326;2022-11-03T15:35:22;6.32;;;1.75;;
59880;SDS011;45751;51.380;10.326;2022-11-03T15:37:49;9.82;;;1.98;;
59880;SDS011;45751;51.380;10.326;2022-11-03T15:40:17;8.68;;;2.05;;
59880;SDS011;45751;51.380;10.326;2022-11-03T15:42:43;7.40;;;1.80;;
59880;SDS011;45751;51.380;10.326;2022-11-03T15:45:11;5.50;;;1.70;;
59880;SDS011;45751;51.380;10.326;2022-11-03T15:47:39;6.55;;;1.88;;
59880;SDS011;45751;51.380;10.326;2022-11-03T15:50:06;7.85;;;2.13;;
59880;SDS011;45751;51.380;10.326;2022-11-03T15:52:35;6.95;;;1.92;;
59880;SDS011;45751;51.380;10.326;2022-11-03T15:55:02;5.70;;;1.80;;
59880;SDS011;45751;51.380;10.326;2022-11-03T15:57:33;5.95;;;1.70;;
59880;SDS011;45751;51.380;10.326;2022-11-03T16:00:00;6.72;;;2.10;;
59880;SDS011;45751;51.380;10.326;2022-11-03T16:02:29;6.13;;;1.77;;
59880;SDS011;45751;51.380;10.326;2022-11-03T16:05:11;7.15;;;1.98;;
59880;SDS011;45751;51.380;10.326;2022-11-03T16:07:38;6.38;;;1.90;;
59880;SDS011;45751;51.380;10.326;2022-11-03T16:10:05;8.27;;;1.58;;
59880;SDS011;45751;51.380;10.326;2022-11-03T16:12:32;8.45;;;2.10;;
59880;SDS011;45751;51.380;10.326;2022-11-03T16:15:01;6.45;;;1.70;;
59880;SDS011;45751;51.380;10.326;2022-11-03T16:17:28;7.32;;;2.05;;
59880;SDS011;45751;51.380;10.326;2022-11-03T16:19:55;6.95;;;1.92;;
59880;SDS011;45751;51.380;10.326;2022-11-03T16:22:22;6.32;;;1.88;;
59880;SDS011;45751;51.380;10.326;2022-11-03T16:24:48;8.02;;;2.13;;
59880;SDS011;45751;51.380;10.326;2022-11-03T16:27:15;7.90;;;2.25;;
59880;SDS011;45751;51.380;10.326;2022-11-03T16:29:42;6.15;;;2.08;;
59880;SDS011;45751;51.380;10.326;2022-11-03T16:32:09;6.13;;;1.80;;
59880;SDS011;45751;51.380;10.326;2022-11-03T16:34:36;7.43;;;1.55;;
59880;SDS011;45751;51.380;10.326;2022-11-03T16:37:03;8.02;;;2.00;;
59880;SDS011;45751;51.380;10.326;2022-11-03T16:39:30;6.63;;;2.05;;
59880;SDS011;45751;51.380;10.326;2022-11-03T16:41:56;6.93;;;2.17;;
59880;SDS011;45751;51.380;10.326;2022-11-03T16:45:14;6.78;;;1.90;;